Pierceton, Indiana
Current Conditions -  °F | °C
As of 8:55 AM on Saturday 22 Nov 2014 (Local Time) from KASW Reporting Station
Haze Haze  
Wind Chill: 36°   Ceiling: 3100
Heat Index: 36°   Visibility: 5mi
Dew Point: 34°   Wind: 3mph
Humidity: 93%   Direction: 190°S
Pressure: 30.1"   Gusts: NA
Location:  41.2°N, 85.71°W
Report Text: KASW 221355Z AUTO 19003KT 5SM BR OVC031 02/01 A3010 RMK AO2
Loading
Personal Weather Stations






























Interactive Weather Map New forecast layout! Learn more

10-Day Weather Forecast

Advertisements
Track Severe Weather on mobile